Time,TemperatureF,DewpointF,PressureIn,WindDirection,WindDirectionDegrees,WindSpeedMPH,WindSpeedGustMPH,Humidity,HourlyPrecipIn,Conditions,Clouds,dailyrainin,SoftwareType,DateUTC
2013-09-16 00:14:00,63.0,60.0,30.06,South,180,0.0,-999.0,90,-99.99,,,-99.99,,2013-09-16 04:14:00,
2013-09-16 00:24:00,63.0,60.0,30.06,South,181,0.0,-999.0,90,-99.99,,,-99.99,,2013-09-16 04:24:00,
2013-09-16 00:54:00,64.0,60.0,30.05,SSW,210,0.0,-999.0,86,-99.99,,,-99.99,,2013-09-16 04:54:00,
2013-09-16 01:13:00,65.0,60.0,30.05,SSE,158,0.0,-999.0,84,-99.99,,,-99.99,,2013-09-16 05:13:00,
2013-09-16 01:22:00,65.0,60.0,30.05,SSE,148,0.0,-999.0,84,-99.99,,,-99.99,,2013-09-16 05:22:00,
2013-09-16 01:52:00,66.0,60.0,30.05,SSE,167,0.0,-999.0,82,-99.99,,,-99.99,,2013-09-16 05:52:00,
2013-09-16 02:12:00,65.0,60.0,30.05,SSW,196,0.0,-999.0,83,-99.99,,,-99.99,,2013-09-16 06:12:00,
2013-09-16 02:22:00,65.0,60.0,30.04,SE,130,0.0,-999.0,83,-99.99,,,-99.99,,2013-09-16 06:22:00,
2013-09-16 02:52:00,64.0,59.0,30.03,South,171,0.0,-999.0,85,-99.99,,,-99.99,,2013-09-16 06:52:00,
2013-09-16 03:12:00,64.0,59.0,30.03,South,178,0.0,-999.0,85,-99.99,,,-99.99,,2013-09-16 07:12:00,
2013-09-16 03:22:00,64.0,59.0,30.03,SSE,159,0.0,-999.0,84,-99.99,,,-99.99,,2013-09-16 07:22:00,
2013-09-16 03:52:00,64.0,59.0,30.02,SSE,165,0.0,-999.0,84,-99.99,,,-99.99,,2013-09-16 07:52:00,
2013-09-16 04:22:00,64.0,59.0,30.02,South,177,0.0,-999.0,84,-99.99,,,-99.99,,2013-09-16 08:22:00,
2013-09-16 04:52:00,64.0,59.0,30.01,South,175,0.0,-999.0,84,-99.99,,,-99.99,,2013-09-16 08:52:00,
2013-09-16 05:12:00,63.0,59.0,30.01,South,175,0.0,-999.0,86,-99.99,,,-99.99,,2013-09-16 09:12:00,
2013-09-16 05:22:00,63.0,59.0,30.01,South,175,0.0,-999.0,87,-99.99,,,-99.99,,2013-09-16 09:22:00,
2013-09-16 05:43:00,62.0,59.0,30.01,South,175,0.0,-999.0,89,-99.99,,,-99.99,,2013-09-16 09:43:00,
2013-09-16 05:53:00,61.0,58.0,30.00,South,175,0.0,-999.0,89,-99.99,,,-99.99,,2013-09-16 09:53:00,
2013-09-16 06:23:00,61.0,58.0,30.01,South,175,0.0,-999.0,91,-99.99,,,-99.99,,2013-09-16 10:23:00,
2013-09-16 06:53:00,60.0,58.0,30.01,South,175,0.0,-999.0,93,-99.99,,,-99.99,,2013-09-16 10:53:00,
2013-09-16 07:22:00,60.0,58.0,30.01,South,175,0.0,-999.0,94,-99.99,,,-99.99,,2013-09-16 11:22:00,
2013-09-16 07:52:00,60.0,59.0,30.03,South,175,0.0,-999.0,95,-99.99,,,-99.99,,2013-09-16 11:52:00,
2013-09-16 08:12:00,61.0,60.0,30.03,South,175,0.0,-999.0,95,-99.99,,,-99.99,,2013-09-16 12:12:00,
2013-09-16 08:22:00,61.0,60.0,30.04,South,175,0.0,-999.0,95,-99.99,,,-99.99,,2013-09-16 12:22:00,
2013-09-16 08:52:00,63.0,61.0,30.05,South,175,0.0,-999.0,94,-99.99,,,-99.99,,2013-09-16 12:52:00,
2013-09-16 09:11:00,63.0,61.0,30.05,South,175,0.0,-999.0,94,-99.99,,,-99.99,,2013-09-16 13:11:00,
2013-09-16 09:22:00,64.0,62.0,30.06,ENE,76,0.0,-999.0,92,-99.99,,,-99.99,,2013-09-16 13:22:00,
2013-09-16 09:52:00,64.0,61.0,30.07,ENE,76,0.0,-999.0,91,-99.99,,,-99.99,,2013-09-16 13:52:00,
2013-09-16 10:11:00,64.0,62.0,30.07,ENE,76,0.0,-999.0,93,-99.99,,,-99.99,,2013-09-16 14:11:00,
2013-09-16 10:22:00,64.0,62.0,30.08,ENE,76,0.0,-999.0,93,-99.99,,,-99.99,,2013-09-16 14:22:00,
2013-09-16 10:52:00,64.0,62.0,30.08,ENE,76,0.0,-999.0,94,-99.99,,,-99.99,,2013-09-16 14:52:00,
2013-09-16 11:12:00,63.0,61.0,30.08,ENE,76,0.0,-999.0,94,-99.99,,,-99.99,,2013-09-16 15:12:00,
2013-09-16 11:22:00,63.0,61.0,30.08,ENE,76,0.0,-999.0,94,-99.99,,,-99.99,,2013-09-16 15:22:00,
2013-09-16 11:53:00,64.0,63.0,30.09,ENE,76,0.0,-999.0,95,-99.99,,,-99.99,,2013-09-16 15:53:00,
2013-09-16 12:23:00,66.0,65.0,30.09,ENE,76,0.0,-999.0,95,-99.99,,,-99.99,,2013-09-16 16:23:00,
2013-09-16 12:52:00,69.0,64.0,30.09,NNE,26,0.0,-999.0,83,-99.99,,,-99.99,,2013-09-16 16:52:00,
2013-09-16 13:12:00,71.0,64.0,30.08,NW,314,0.0,-999.0,78,-99.99,,,-99.99,,2013-09-16 17:12:00,
2013-09-16 13:23:00,71.0,63.0,30.08,NE,36,0.0,-999.0,76,-99.99,,,-99.99,,2013-09-16 17:23:00,
2013-09-16 13:53:00,72.0,62.0,30.08,WNW,292,0.0,-999.0,72,-99.99,,,-99.99,,2013-09-16 17:53:00,
2013-09-16 14:12:00,73.0,62.0,30.07,NNE,26,0.0,-999.0,68,-99.99,,,-99.99,,2013-09-16 18:12:00,
2013-09-16 14:22:00,74.0,62.0,30.08,North,355,0.0,-999.0,67,-99.99,,,-99.99,,2013-09-16 18:22:00,
2013-09-16 14:52:00,77.0,63.0,30.07,North,350,0.0,-999.0,61,-99.99,,,-99.99,,2013-09-16 18:52:00,
2013-09-16 15:11:00,78.0,62.0,30.06,NNW,331,0.0,-999.0,59,-99.99,,,-99.99,,2013-09-16 19:11:00,
2013-09-16 15:22:00,78.0,62.0,30.06,NW,313,0.0,-999.0,59,-99.99,,,-99.99,,2013-09-16 19:22:00,
2013-09-16 15:53:00,74.0,61.0,30.06,North,351,0.0,-999.0,64,-99.99,,,-99.99,,2013-09-16 19:53:00,
2013-09-16 16:11:00,72.0,61.0,30.06,North,351,0.0,-999.0,69,-99.99,,,-99.99,,2013-09-16 20:11:00,
2013-09-16 16:22:00,72.0,60.0,30.06,North,360,0.0,-999.0,65,-99.99,,,-99.99,,2013-09-16 20:22:00,
2013-09-16 16:43:00,71.0,60.0,30.06,North,360,0.0,-999.0,68,-99.99,,,-99.99,,2013-09-16 20:43:00,
2013-09-16 16:52:00,72.0,61.0,30.07,North,5,0.0,-999.0,68,-99.99,,,-99.99,,2013-09-16 20:52:00,
2013-09-16 17:11:00,72.0,60.0,30.06,NNE,17,0.0,-999.0,66,-99.99,,,-99.99,,2013-09-16 21:11:00,
2013-09-16 17:22:00,71.0,61.0,30.07,NNE,17,0.0,-999.0,70,-99.99,,,-99.99,,2013-09-16 21:22:00,
2013-09-16 17:55:00,71.0,58.0,30.07,North,360,0.0,-999.0,64,-99.99,,,-99.99,,2013-09-16 21:55:00,
2013-09-16 18:13:00,71.0,60.0,30.07,NNE,18,0.0,-999.0,68,-99.99,,,-99.99,,2013-09-16 22:13:00,
2013-09-16 18:24:00,70.0,59.0,30.08,NNW,341,0.0,-999.0,68,-99.99,,,-99.99,,2013-09-16 22:24:00,
2013-09-16 18:43:00,69.0,58.0,30.08,NNE,29,0.0,-999.0,67,-99.99,,,-99.99,,2013-09-16 22:43:00,
2013-09-16 18:53:00,69.0,59.0,30.09,NNE,29,0.0,-999.0,70,-99.99,,,-99.99,,2013-09-16 22:53:00,
2013-09-16 19:12:00,68.0,58.0,30.09,NW,309,0.0,-999.0,71,-99.99,,,-99.99,,2013-09-16 23:12:00,
2013-09-16 19:22:00,68.0,58.0,30.09,WNW,295,0.0,-999.0,70,-99.99,,,-99.99,,2013-09-16 23:22:00,
2013-09-16 19:52:00,66.0,56.0,30.10,WNW,296,0.0,-999.0,71,-99.99,,,-99.99,,2013-09-16 23:52:00,
2013-09-16 20:11:00,66.0,57.0,30.11,WNW,296,0.0,-999.0,73,-99.99,,,-99.99,,2013-09-17 00:11:00,
2013-09-16 20:22:00,65.0,57.0,30.11,WNW,296,0.0,-999.0,75,-99.99,,,-99.99,,2013-09-17 00:22:00,
2013-09-16 20:42:00,64.0,56.0,30.12,WNW,295,0.0,-999.0,75,-99.99,,,-99.99,,2013-09-17 00:42:00,
2013-09-16 20:52:00,63.0,56.0,30.12,WNW,295,0.0,-999.0,77,-99.99,,,-99.99,,2013-09-17 00:52:00,
2013-09-16 21:11:00,62.0,56.0,30.13,WNW,296,0.0,-999.0,80,-99.99,,,-99.99,,2013-09-17 01:11:00,
2013-09-16 21:22:00,61.0,55.0,30.14,WNW,296,0.0,-999.0,82,-99.99,,,-99.99,,2013-09-17 01:22:00,
2013-09-16 21:42:00,61.0,56.0,30.15,WNW,296,0.0,-999.0,83,-99.99,,,-99.99,,2013-09-17 01:42:00,
2013-09-16 21:52:00,60.0,56.0,30.15,WNW,296,0.0,-999.0,86,-99.99,,,-99.99,,2013-09-17 01:52:00,
2013-09-16 22:12:00,59.0,55.0,30.16,WNW,295,0.0,-999.0,88,-99.99,,,-99.99,,2013-09-17 02:12:00,
2013-09-16 22:22:00,59.0,56.0,30.16,WNW,295,0.0,-999.0,89,-99.99,,,-99.99,,2013-09-17 02:22:00,
2013-09-16 22:42:00,58.0,55.0,30.16,WNW,296,0.0,-999.0,90,-99.99,,,-99.99,,2013-09-17 02:42:00,
2013-09-16 22:52:00,58.0,55.0,30.17,WNW,296,0.0,-999.0,91,-99.99,,,-99.99,,2013-09-17 02:52:00,
2013-09-16 23:12:00,57.0,55.0,30.17,WNW,296,0.0,-999.0,92,-99.99,,,-99.99,,2013-09-17 03:12:00,
2013-09-16 23:23:00,57.0,55.0,30.19,WNW,295,0.0,-999.0,93,-99.99,,,-99.99,,2013-09-17 03:23:00,
2013-09-16 23:54:00,56.0,54.0,30.19,WNW,296,0.0,-999.0,94,-99.99,,,-99.99,,2013-09-17 03:54:00,